Ahmeek, Michigan
Current Conditions -  °F | °C
As of 9:53 PM on Tuesday 25 Nov 2014 (Local Time) from KCMX Reporting Station
Overcast Overcast  
Wind Chill: 10°   Ceiling: 2600
Heat Index: 20°   Visibility: 10mi
Dew Point: 10°   Wind: 8mph
Humidity: 65%   Direction: 220°SW
Pressure: 30.04"   Gusts: NA
Location:  47.3°N, 88.4°W
Report Text: KCMX 260253Z AUTO 22007KT 10SM OVC026 M07/M12 A3004 RMK AO2 SLP191 T10671122 53016 $
Loading
Personal Weather Stations






























Interactive Weather Map New forecast layout! Learn more

10-Day Weather Forecast

Advertisements
Track Severe Weather on mobile